sensor_id;sensor_type;location;lat;lon;timestamp;P1;durP1;ratioP1;P2;durP2;ratioP2
19664;SDS011;9980;51.020;7.772;2022-08-03T00:02:15;3.27;;;3.00;;
19664;SDS011;9980;51.020;7.772;2022-08-03T00:04:42;4.63;;;4.23;;
19664;SDS011;9980;51.020;7.772;2022-08-03T00:07:09;4.07;;;3.67;;
19664;SDS011;9980;51.020;7.772;2022-08-03T00:09:36;3.50;;;3.20;;
19664;SDS011;9980;51.020;7.772;2022-08-03T00:12:03;3.20;;;3.00;;
19664;SDS011;9980;51.020;7.772;2022-08-03T00:14:31;5.23;;;3.30;;
19664;SDS011;9980;51.020;7.772;2022-08-03T00:16:58;3.00;;;2.80;;
19664;SDS011;9980;51.020;7.772;2022-08-03T00:19:25;5.00;;;3.00;;
19664;SDS011;9980;51.020;7.772;2022-08-03T00:21:53;4.53;;;2.67;;
19664;SDS011;9980;51.020;7.772;2022-08-03T00:24:19;3.67;;;3.10;;
19664;SDS011;9980;51.020;7.772;2022-08-03T00:26:46;4.00;;;2.70;;
19664;SDS011;9980;51.020;7.772;2022-08-03T00:29:13;4.17;;;2.77;;
19664;SDS011;9980;51.020;7.772;2022-08-03T00:31:40;4.67;;;3.03;;
19664;SDS011;9980;51.020;7.772;2022-08-03T00:34:24;3.30;;;3.10;;
19664;SDS011;9980;51.020;7.772;2022-08-03T00:37:01;3.40;;;2.83;;
19664;SDS011;9980;51.020;7.772;2022-08-03T00:39:30;2.77;;;2.57;;
19664;SDS011;9980;51.020;7.772;2022-08-03T00:42:00;2.70;;;2.50;;
19664;SDS011;9980;51.020;7.772;2022-08-03T00:44:29;3.80;;;3.03;;
19664;SDS011;9980;51.020;7.772;2022-08-03T00:46:56;3.13;;;2.93;;
19664;SDS011;9980;51.020;7.772;2022-08-03T00:49:25;3.50;;;2.67;;
19664;SDS011;9980;51.020;7.772;2022-08-03T00:51:53;3.43;;;3.13;;
19664;SDS011;9980;51.020;7.772;2022-08-03T00:54:20;3.33;;;2.70;;
19664;SDS011;9980;51.020;7.772;2022-08-03T00:56:48;4.90;;;3.00;;
19664;SDS011;9980;51.020;7.772;2022-08-03T00:59:25;3.53;;;3.23;;
19664;SDS011;9980;51.020;7.772;2022-08-03T01:01:53;2.80;;;2.57;;
19664;SDS011;9980;51.020;7.772;2022-08-03T01:04:20;2.90;;;2.70;;
19664;SDS011;9980;51.020;7.772;2022-08-03T01:07:09;4.67;;;2.97;;
19664;SDS011;9980;51.020;7.772;2022-08-03T01:10:22;3.10;;;2.80;;
19664;SDS011;9980;51.020;7.772;2022-08-03T01:25:02;3.00;;;2.80;;
19664;SDS011;9980;51.020;7.772;2022-08-03T01:27:43;4.07;;;3.67;;
19664;SDS011;9980;51.020;7.772;2022-08-03T01:30:46;3.13;;;2.90;;
19664;SDS011;9980;51.020;7.772;2022-08-03T01:33:21;3.23;;;2.90;;
19664;SDS011;9980;51.020;7.772;2022-08-03T01:35:58;2.80;;;2.60;;
19664;SDS011;9980;51.020;7.772;2022-08-03T01:38:34;4.03;;;3.70;;
19664;SDS011;9980;51.020;7.772;2022-08-03T01:41:12;3.37;;;3.13;;
19664;SDS011;9980;51.020;7.772;2022-08-03T01:43:44;3.63;;;3.33;;
19664;SDS011;9980;51.020;7.772;2022-08-03T01:46:36;4.27;;;2.80;;
19664;SDS011;9980;51.020;7.772;2022-08-03T01:49:13;3.27;;;2.90;;
19664;SDS011;9980;51.020;7.772;2022-08-03T01:51:42;3.80;;;3.33;;
19664;SDS011;9980;51.020;7.772;2022-08-03T01:54:30;3.53;;;3.23;;
19664;SDS011;9980;51.020;7.772;2022-08-03T01:57:06;4.00;;;3.07;;
19664;SDS011;9980;51.020;7.772;2022-08-03T01:59:36;3.70;;;3.40;;
19664;SDS011;9980;51.020;7.772;2022-08-03T02:02:06;4.30;;;3.50;;
19664;SDS011;9980;51.020;7.772;2022-08-03T02:04:58;3.30;;;3.00;;
19664;SDS011;9980;51.020;7.772;2022-08-03T02:07:30;3.63;;;3.33;;
19664;SDS011;9980;51.020;7.772;2022-08-03T02:10:03;3.57;;;3.27;;
19664;SDS011;9980;51.020;7.772;2022-08-03T02:12:32;3.43;;;3.13;;
19664;SDS011;9980;51.020;7.772;2022-08-03T02:15:03;3.67;;;2.73;;
19664;SDS011;9980;51.020;7.772;2022-08-03T02:17:32;2.83;;;2.60;;
19664;SDS011;9980;51.020;7.772;2022-08-03T02:20:06;3.07;;;2.77;;
19664;SDS011;9980;51.020;7.772;2022-08-03T02:22:38;4.07;;;3.00;;
19664;SDS011;9980;51.020;7.772;2022-08-03T02:25:07;2.90;;;2.70;;
19664;SDS011;9980;51.020;7.772;2022-08-03T02:27:38;2.87;;;2.67;;
19664;SDS011;9980;51.020;7.772;2022-08-03T02:30:18;3.40;;;3.10;;
19664;SDS011;9980;51.020;7.772;2022-08-03T02:32:49;3.13;;;2.90;;
19664;SDS011;9980;51.020;7.772;2022-08-03T02:35:22;3.20;;;2.90;;
19664;SDS011;9980;51.020;7.772;2022-08-03T02:37:52;3.03;;;2.83;;
19664;SDS011;9980;51.020;7.772;2022-08-03T02:40:27;3.27;;;3.07;;
19664;SDS011;9980;51.020;7.772;2022-08-03T02:42:57;4.63;;;3.67;;
19664;SDS011;9980;51.020;7.772;2022-08-03T02:45:30;2.90;;;2.60;;
19664;SDS011;9980;51.020;7.772;2022-08-03T02:48:10;4.93;;;4.33;;
19664;SDS011;9980;51.020;7.772;2022-08-03T02:50:45;4.27;;;3.87;;
19664;SDS011;9980;51.020;7.772;2022-08-03T02:53:14;3.97;;;3.67;;
19664;SDS011;9980;51.020;7.772;2022-08-03T02:55:45;3.83;;;3.53;;
19664;SDS011;9980;51.020;7.772;2022-08-03T02:58:14;4.50;;;3.10;;
19664;SDS011;9980;51.020;7.772;2022-08-03T03:00:46;3.80;;;3.50;;
19664;SDS011;9980;51.020;7.772;2022-08-03T03:03:17;3.47;;;3.17;;
19664;SDS011;9980;51.020;7.772;2022-08-03T03:05:46;6.23;;;3.47;;
19664;SDS011;9980;51.020;7.772;2022-08-03T03:08:23;4.30;;;3.30;;
19664;SDS011;9980;51.020;7.772;2022-08-03T03:10:55;3.23;;;3.03;;
19664;SDS011;9980;51.020;7.772;2022-08-03T03:13:27;4.03;;;3.73;;
19664;SDS011;9980;51.020;7.772;2022-08-03T03:15:56;3.97;;;3.57;;
19664;SDS011;9980;51.020;7.772;2022-08-03T03:18:27;3.93;;;3.53;;
19664;SDS011;9980;51.020;7.772;2022-08-03T03:20:56;3.20;;;3.00;;
19664;SDS011;9980;51.020;7.772;2022-08-03T03:23:26;3.43;;;3.13;;
19664;SDS011;9980;51.020;7.772;2022-08-03T03:25:54;3.23;;;3.03;;
19664;SDS011;9980;51.020;7.772;2022-08-03T03:28:23;2.97;;;2.77;;
19664;SDS011;9980;51.020;7.772;2022-08-03T03:30:51;3.80;;;3.50;;
19664;SDS011;9980;51.020;7.772;2022-08-03T03:33:19;3.23;;;3.00;;
19664;SDS011;9980;51.020;7.772;2022-08-03T03:35:47;3.20;;;3.00;;
19664;SDS011;9980;51.020;7.772;2022-08-03T03:38:16;3.83;;;3.20;;
19664;SDS011;9980;51.020;7.772;2022-08-03T03:40:44;3.60;;;3.30;;
19664;SDS011;9980;51.020;7.772;2022-08-03T03:43:12;3.90;;;3.60;;
19664;SDS011;9980;51.020;7.772;2022-08-03T03:45:40;3.50;;;3.20;;
19664;SDS011;9980;51.020;7.772;2022-08-03T03:48:08;3.40;;;3.10;;
19664;SDS011;9980;51.020;7.772;2022-08-03T03:50:36;3.60;;;3.30;;
19664;SDS011;9980;51.020;7.772;2022-08-03T03:53:08;3.83;;;3.63;;
19664;SDS011;9980;51.020;7.772;2022-08-03T03:55:38;5.27;;;3.80;;
19664;SDS011;9980;51.020;7.772;2022-08-03T03:58:27;5.67;;;3.87;;
19664;SDS011;9980;51.020;7.772;2022-08-03T04:00:54;6.83;;;4.40;;
19664;SDS011;9980;51.020;7.772;2022-08-03T04:03:21;5.40;;;4.30;;
19664;SDS011;9980;51.020;7.772;2022-08-03T04:05:48;5.37;;;3.97;;
19664;SDS011;9980;51.020;7.772;2022-08-03T04:08:51;4.30;;;3.90;;
19664;SDS011;9980;51.020;7.772;2022-08-03T04:11:45;4.07;;;3.67;;
19664;SDS011;9980;51.020;7.772;2022-08-03T04:14:24;4.27;;;3.93;;
19664;SDS011;9980;51.020;7.772;2022-08-03T04:16:58;4.17;;;3.70;;
19664;SDS011;9980;51.020;7.772;2022-08-03T04:22:06;4.53;;;4.13;;
19664;SDS011;9980;51.020;7.772;2022-08-03T04:24:38;5.10;;;4.53;;
19664;SDS011;9980;51.020;7.772;2022-08-03T04:27:10;4.80;;;4.40;;
19664;SDS011;9980;51.020;7.772;2022-08-03T04:29:42;4.70;;;4.30;;
19664;SDS011;9980;51.020;7.772;2022-08-03T04:32:14;5.27;;;4.50;;
19664;SDS011;9980;51.020;7.772;2022-08-03T04:34:43;5.00;;;4.60;;
19664;SDS011;9980;51.020;7.772;2022-08-03T04:37:11;5.07;;;4.67;;
19664;SDS011;9980;51.020;7.772;2022-08-03T04:39:49;5.30;;;4.47;;
19664;SDS011;9980;51.020;7.772;2022-08-03T04:42:22;5.37;;;4.87;;
19664;SDS011;9980;51.020;7.772;2022-08-03T04:44:51;8.00;;;5.87;;
19664;SDS011;9980;51.020;7.772;2022-08-03T04:47:26;5.97;;;5.40;;
19664;SDS011;9980;51.020;7.772;2022-08-03T04:49:57;9.83;;;7.07;;
19664;SDS011;9980;51.020;7.772;2022-08-03T04:52:32;6.23;;;5.63;;
19664;SDS011;9980;51.020;7.772;2022-08-03T04:55:00;7.43;;;6.73;;
19664;SDS011;9980;51.020;7.772;2022-08-03T04:57:27;8.93;;;6.93;;
19664;SDS011;9980;51.020;7.772;2022-08-03T04:59:54;8.83;;;7.30;;
19664;SDS011;9980;51.020;7.772;2022-08-03T05:02:28;7.27;;;6.57;;
19664;SDS011;9980;51.020;7.772;2022-08-03T05:04:57;7.23;;;6.53;;
19664;SDS011;9980;51.020;7.772;2022-08-03T05:07:25;6.63;;;5.93;;
19664;SDS011;9980;51.020;7.772;2022-08-03T05:10:02;7.53;;;6.30;;
19664;SDS011;9980;51.020;7.772;2022-08-03T05:12:41;6.73;;;5.97;;
19664;SDS011;9980;51.020;7.772;2022-08-03T05:15:09;6.37;;;5.77;;
19664;SDS011;9980;51.020;7.772;2022-08-03T05:17:37;7.73;;;5.90;;
19664;SDS011;9980;51.020;7.772;2022-08-03T05:20:04;5.50;;;5.10;;
19664;SDS011;9980;51.020;7.772;2022-08-03T05:22:32;6.53;;;5.03;;
19664;SDS011;9980;51.020;7.772;2022-08-03T05:24:59;6.43;;;5.83;;
19664;SDS011;9980;51.020;7.772;2022-08-03T05:27:27;5.90;;;5.33;;
19664;SDS011;9980;51.020;7.772;2022-08-03T05:29:54;5.33;;;4.83;;
19664;SDS011;9980;51.020;7.772;2022-08-03T05:32:41;5.77;;;5.00;;
19664;SDS011;9980;51.020;7.772;2022-08-03T05:35:08;6.93;;;5.63;;
19664;SDS011;9980;51.020;7.772;2022-08-03T05:37:55;5.83;;;4.97;;
19664;SDS011;9980;51.020;7.772;2022-08-03T05:40:22;6.33;;;4.90;;
19664;SDS011;9980;51.020;7.772;2022-08-03T05:42:52;6.20;;;5.70;;
19664;SDS011;9980;51.020;7.772;2022-08-03T05:45:19;6.13;;;5.60;;
19664;SDS011;9980;51.020;7.772;2022-08-03T05:47:51;9.27;;;5.67;;
19664;SDS011;9980;51.020;7.772;2022-08-03T05:50:19;6.47;;;5.70;;
19664;SDS011;9980;51.020;7.772;2022-08-03T05:52:46;7.03;;;5.37;;
19664;SDS011;9980;51.020;7.772;2022-08-03T05:55:13;7.27;;;6.07;;
19664;SDS011;9980;51.020;7.772;2022-08-03T05:57:41;6.40;;;5.80;;
19664;SDS011;9980;51.020;7.772;2022-08-03T06:00:10;5.73;;;5.23;;
19664;SDS011;9980;51.020;7.772;2022-08-03T06:02:38;7.00;;;5.50;;
19664;SDS011;9980;51.020;7.772;2022-08-03T06:05:06;6.53;;;4.97;;
19664;SDS011;9980;51.020;7.772;2022-08-03T06:07:33;8.33;;;5.23;;
19664;SDS011;9980;51.020;7.772;2022-08-03T06:10:02;10.50;;;4.90;;
19664;SDS011;9980;51.020;7.772;2022-08-03T06:12:50;5.50;;;5.00;;
19664;SDS011;9980;51.020;7.772;2022-08-03T06:15:18;6.57;;;5.17;;
19664;SDS011;9980;51.020;7.772;2022-08-03T06:17:49;6.10;;;5.17;;
19664;SDS011;9980;51.020;7.772;2022-08-03T06:20:18;5.30;;;4.90;;
19664;SDS011;9980;51.020;7.772;2022-08-03T06:22:46;5.37;;;4.97;;
19664;SDS011;9980;51.020;7.772;2022-08-03T06:25:16;5.90;;;5.30;;
19664;SDS011;9980;51.020;7.772;2022-08-03T06:27:46;5.47;;;4.97;;
19664;SDS011;9980;51.020;7.772;2022-08-03T06:30:13;5.63;;;5.13;;
19664;SDS011;9980;51.020;7.772;2022-08-03T06:32:46;5.70;;;5.07;;
19664;SDS011;9980;51.020;7.772;2022-08-03T06:35:17;5.30;;;4.80;;
19664;SDS011;9980;51.020;7.772;2022-08-03T06:37:48;5.83;;;5.23;;
19664;SDS011;9980;51.020;7.772;2022-08-03T06:40:17;6.40;;;5.40;;
19664;SDS011;9980;51.020;7.772;2022-08-03T06:42:57;5.00;;;4.60;;
19664;SDS011;9980;51.020;7.772;2022-08-03T06:45:26;7.00;;;4.70;;
19664;SDS011;9980;51.020;7.772;2022-08-03T06:50:32;6.67;;;4.63;;
19664;SDS011;9980;51.020;7.772;2022-08-03T06:53:01;5.30;;;4.23;;
19664;SDS011;9980;51.020;7.772;2022-08-03T06:55:29;4.63;;;4.20;;
19664;SDS011;9980;51.020;7.772;2022-08-03T06:57:57;7.43;;;5.00;;
19664;SDS011;9980;51.020;7.772;2022-08-03T07:00:28;4.97;;;4.57;;
19664;SDS011;9980;51.020;7.772;2022-08-03T07:02:56;6.17;;;4.70;;
19664;SDS011;9980;51.020;7.772;2022-08-03T07:05:23;5.87;;;4.30;;
19664;SDS011;9980;51.020;7.772;2022-08-03T07:07:54;4.15;;;3.80;;
19664;SDS011;9980;51.020;7.772;2022-08-03T07:10:27;4.07;;;3.78;;
19664;SDS011;9980;51.020;7.772;2022-08-03T07:12:54;4.38;;;4.07;;
19664;SDS011;9980;51.020;7.772;2022-08-03T07:15:22;6.03;;;4.18;;
19664;SDS011;9980;51.020;7.772;2022-08-03T07:18:10;3.95;;;3.65;;
19664;SDS011;9980;51.020;7.772;2022-08-03T07:20:37;4.68;;;3.88;;
19664;SDS011;9980;51.020;7.772;2022-08-03T07:23:04;4.70;;;4.05;;
19664;SDS011;9980;51.020;7.772;2022-08-03T07:25:31;4.30;;;3.90;;
19664;SDS011;9980;51.020;7.772;2022-08-03T07:27:58;3.80;;;3.28;;
19664;SDS011;9980;51.020;7.772;2022-08-03T07:30:25;4.00;;;3.60;;
19664;SDS011;9980;51.020;7.772;2022-08-03T07:32:52;3.90;;;3.60;;
19664;SDS011;9980;51.020;7.772;2022-08-03T07:35:19;4.28;;;3.15;;
19664;SDS011;9980;51.020;7.772;2022-08-03T07:37:50;7.68;;;3.42;;
19664;SDS011;9980;51.020;7.772;2022-08-03T07:40:19;3.35;;;2.63;;
19664;SDS011;9980;51.020;7.772;2022-08-03T07:42:48;6.50;;;3.40;;
19664;SDS011;9980;51.020;7.772;2022-08-03T07:45:18;3.05;;;2.70;;
19664;SDS011;9980;51.020;7.772;2022-08-03T07:47:48;3.88;;;2.47;;
19664;SDS011;9980;51.020;7.772;2022-08-03T07:50:18;4.28;;;2.38;;
19664;SDS011;9980;51.020;7.772;2022-08-03T07:52:46;2.95;;;2.67;;
19664;SDS011;9980;51.020;7.772;2022-08-03T07:55:13;2.13;;;1.92;;
19664;SDS011;9980;51.020;7.772;2022-08-03T07:57:42;2.30;;;2.10;;
19664;SDS011;9980;51.020;7.772;2022-08-03T08:00:13;2.35;;;1.98;;
19664;SDS011;9980;51.020;7.772;2022-08-03T08:02:43;3.17;;;2.20;;
19664;SDS011;9980;51.020;7.772;2022-08-03T08:05:11;7.53;;;2.10;;
19664;SDS011;9980;51.020;7.772;2022-08-03T08:07:38;4.65;;;2.15;;
19664;SDS011;9980;51.020;7.772;2022-08-03T08:10:06;4.00;;;1.98;;
19664;SDS011;9980;51.020;7.772;2022-08-03T08:12:35;2.17;;;1.80;;
19664;SDS011;9980;51.020;7.772;2022-08-03T08:15:04;2.70;;;1.90;;
19664;SDS011;9980;51.020;7.772;2022-08-03T08:17:40;2.88;;;1.83;;
19664;SDS011;9980;51.020;7.772;2022-08-03T08:20:17;2.42;;;1.65;;
19664;SDS011;9980;51.020;7.772;2022-08-03T08:22:56;2.22;;;1.90;;
19664;SDS011;9980;51.020;7.772;2022-08-03T08:25:27;3.17;;;1.73;;
19664;SDS011;9980;51.020;7.772;2022-08-03T08:27:57;7.15;;;2.00;;
19664;SDS011;9980;51.020;7.772;2022-08-03T08:30:47;2.00;;;1.90;;
19664;SDS011;9980;51.020;7.772;2022-08-03T08:33:15;2.42;;;1.30;;
19664;SDS011;9980;51.020;7.772;2022-08-03T08:35:49;1.52;;;1.38;;
19664;SDS011;9980;51.020;7.772;2022-08-03T08:38:18;2.40;;;1.80;;
19664;SDS011;9980;51.020;7.772;2022-08-03T08:40:45;2.22;;;1.33;;
19664;SDS011;9980;51.020;7.772;2022-08-03T08:43:14;1.55;;;1.45;;
19664;SDS011;9980;51.020;7.772;2022-08-03T08:45:41;1.85;;;1.67;;
19664;SDS011;9980;51.020;7.772;2022-08-03T08:48:10;2.05;;;1.60;;
19664;SDS011;9980;51.020;7.772;2022-08-03T08:50:40;1.95;;;1.70;;
19664;SDS011;9980;51.020;7.772;2022-08-03T08:53:07;1.50;;;1.40;;
19664;SDS011;9980;51.020;7.772;2022-08-03T08:55:45;1.75;;;1.55;;
19664;SDS011;9980;51.020;7.772;2022-08-03T08:58:27;2.17;;;1.40;;
19664;SDS011;9980;51.020;7.772;2022-08-03T09:01:00;2.90;;;1.70;;
19664;SDS011;9980;51.020;7.772;2022-08-03T09:03:27;1.77;;;1.50;;
19664;SDS011;9980;51.020;7.772;2022-08-03T09:05:59;2.95;;;1.95;;
19664;SDS011;9980;51.020;7.772;2022-08-03T09:08:28;1.58;;;1.45;;
19664;SDS011;9980;51.020;7.772;2022-08-03T09:10:56;3.22;;;1.50;;
19664;SDS011;9980;51.020;7.772;2022-08-03T09:13:25;1.98;;;1.33;;
19664;SDS011;9980;51.020;7.772;2022-08-03T09:16:12;1.48;;;1.38;;
19664;SDS011;9980;51.020;7.772;2022-08-03T09:18:49;2.42;;;1.77;;
19664;SDS011;9980;51.020;7.772;2022-08-03T09:21:23;1.73;;;1.33;;
19664;SDS011;9980;51.020;7.772;2022-08-03T09:23:58;2.22;;;1.60;;
19664;SDS011;9980;51.020;7.772;2022-08-03T09:26:31;2.72;;;1.70;;
19664;SDS011;9980;51.020;7.772;2022-08-03T09:29:04;2.70;;;1.42;;
19664;SDS011;9980;51.020;7.772;2022-08-03T09:34:15;2.60;;;1.75;;
19664;SDS011;9980;51.020;7.772;2022-08-03T09:36:44;1.48;;;1.38;;
19664;SDS011;9980;51.020;7.772;2022-08-03T09:42:12;3.38;;;1.58;;
19664;SDS011;9980;51.020;7.772;2022-08-03T09:44:44;3.15;;;1.45;;
19664;SDS011;9980;51.020;7.772;2022-08-03T09:47:15;3.72;;;1.40;;
19664;SDS011;9980;51.020;7.772;2022-08-03T09:50:10;1.70;;;1.60;;
19664;SDS011;9980;51.020;7.772;2022-08-03T09:52:38;2.40;;;1.58;;
19664;SDS011;9980;51.020;7.772;2022-08-03T09:55:18;3.20;;;1.48;;
19664;SDS011;9980;51.020;7.772;2022-08-03T09:58:10;2.03;;;1.20;;
19664;SDS011;9980;51.020;7.772;2022-08-03T10:03:26;1.17;;;1.08;;
19664;SDS011;9980;51.020;7.772;2022-08-03T10:05:56;1.40;;;1.30;;
19664;SDS011;9980;51.020;7.772;2022-08-03T10:08:25;1.33;;;1.02;;
19664;SDS011;9980;51.020;7.772;2022-08-03T10:10:53;1.50;;;1.30;;
19664;SDS011;9980;51.020;7.772;2022-08-03T10:13:21;1.58;;;1.17;;
19664;SDS011;9980;51.020;7.772;2022-08-03T10:15:48;1.40;;;1.30;;
19664;SDS011;9980;51.020;7.772;2022-08-03T10:18:36;1.77;;;1.15;;
19664;SDS011;9980;51.020;7.772;2022-08-03T10:21:03;2.00;;;1.15;;
19664;SDS011;9980;51.020;7.772;2022-08-03T10:23:36;1.60;;;1.50;;
19664;SDS011;9980;51.020;7.772;2022-08-03T10:26:06;2.42;;;1.08;;
19664;SDS011;9980;51.020;7.772;2022-08-03T10:28:39;1.80;;;1.30;;
19664;SDS011;9980;51.020;7.772;2022-08-03T10:31:12;1.45;;;1.33;;
19664;SDS011;9980;51.020;7.772;2022-08-03T10:33:45;1.98;;;1.20;;
19664;SDS011;9980;51.020;7.772;2022-08-03T10:36:22;2.65;;;1.73;;
19664;SDS011;9980;51.020;7.772;2022-08-03T10:38:53;3.55;;;1.40;;
19664;SDS011;9980;51.020;7.772;2022-08-03T10:41:22;2.25;;;1.15;;
19664;SDS011;9980;51.020;7.772;2022-08-03T10:43:58;1.40;;;1.30;;
19664;SDS011;9980;51.020;7.772;2022-08-03T10:46:32;2.55;;;1.50;;
19664;SDS011;9980;51.020;7.772;2022-08-03T10:49:13;5.22;;;1.50;;
19664;SDS011;9980;51.020;7.772;2022-08-03T10:52:00;1.45;;;0.90;;
19664;SDS011;9980;51.020;7.772;2022-08-03T10:54:39;1.40;;;1.30;;
19664;SDS011;9980;51.020;7.772;2022-08-03T10:57:41;1.20;;;1.10;;
19664;SDS011;9980;51.020;7.772;2022-08-03T11:00:25;1.20;;;1.10;;
19664;SDS011;9980;51.020;7.772;2022-08-03T11:03:11;2.80;;;1.33;;
19664;SDS011;9980;51.020;7.772;2022-08-03T11:05:42;1.30;;;1.20;;
19664;SDS011;9980;51.020;7.772;2022-08-03T11:08:26;1.30;;;1.20;;
19664;SDS011;9980;51.020;7.772;2022-08-03T11:10:57;1.20;;;1.10;;
19664;SDS011;9980;51.020;7.772;2022-08-03T11:13:28;1.23;;;1.13;;
19664;SDS011;9980;51.020;7.772;2022-08-03T11:15:59;1.23;;;1.13;;
19664;SDS011;9980;51.020;7.772;2022-08-03T11:18:57;1.63;;;1.30;;
19664;SDS011;9980;51.020;7.772;2022-08-03T11:35:19;2.08;;;1.10;;
19664;SDS011;9980;51.020;7.772;2022-08-03T11:45:56;1.50;;;1.20;;
19664;SDS011;9980;51.020;7.772;2022-08-03T11:48:27;1.40;;;0.95;;
19664;SDS011;9980;51.020;7.772;2022-08-03T11:51:27;1.63;;;1.00;;
19664;SDS011;9980;51.020;7.772;2022-08-03T11:53:57;2.20;;;1.00;;
19664;SDS011;9980;51.020;7.772;2022-08-03T11:56:28;2.15;;;0.90;;
19664;SDS011;9980;51.020;7.772;2022-08-03T11:59:14;2.83;;;0.93;;
19664;SDS011;9980;51.020;7.772;2022-08-03T12:01:47;2.88;;;0.98;;
19664;SDS011;9980;51.020;7.772;2022-08-03T12:04:15;1.20;;;1.00;;
19664;SDS011;9980;51.020;7.772;2022-08-03T12:06:56;1.20;;;1.10;;
19664;SDS011;9980;51.020;7.772;2022-08-03T12:09:25;1.77;;;1.10;;
19664;SDS011;9980;51.020;7.772;2022-08-03T12:11:52;3.20;;;1.00;;
19664;SDS011;9980;51.020;7.772;2022-08-03T12:14:26;1.98;;;1.10;;
19664;SDS011;9980;51.020;7.772;2022-08-03T12:17:14;2.20;;;1.00;;
19664;SDS011;9980;51.020;7.772;2022-08-03T12:19:42;2.13;;;1.00;;
19664;SDS011;9980;51.020;7.772;2022-08-03T12:22:09;1.15;;;1.00;;
19664;SDS011;9980;51.020;7.772;2022-08-03T12:24:40;1.10;;;0.95;;
19664;SDS011;9980;51.020;7.772;2022-08-03T12:27:21;1.27;;;1.02;;
19664;SDS011;9980;51.020;7.772;2022-08-03T12:29:52;1.38;;;1.10;;
19664;SDS011;9980;51.020;7.772;2022-08-03T12:32:24;2.70;;;0.90;;
19664;SDS011;9980;51.020;7.772;2022-08-03T12:34:53;1.20;;;1.10;;
19664;SDS011;9980;51.020;7.772;2022-08-03T12:37:26;1.73;;;1.02;;
19664;SDS011;9980;51.020;7.772;2022-08-03T12:39:54;0.90;;;0.90;;
19664;SDS011;9980;51.020;7.772;2022-08-03T12:42:34;3.33;;;1.00;;
19664;SDS011;9980;51.020;7.772;2022-08-03T12:45:19;1.17;;;1.08;;
19664;SDS011;9980;51.020;7.772;2022-08-03T12:47:53;1.75;;;1.20;;
19664;SDS011;9980;51.020;7.772;2022-08-03T12:50:30;1.17;;;1.08;;
19664;SDS011;9980;51.020;7.772;2022-08-03T12:53:00;3.22;;;0.90;;
19664;SDS011;9980;51.020;7.772;2022-08-03T12:55:33;1.23;;;1.13;;
19664;SDS011;9980;51.020;7.772;2022-08-03T12:58:32;4.03;;;1.10;;
19664;SDS011;9980;51.020;7.772;2022-08-03T13:01:02;4.03;;;1.00;;
19664;SDS011;9980;51.020;7.772;2022-08-03T13:03:39;2.10;;;1.20;;
19664;SDS011;9980;51.020;7.772;2022-08-03T13:06:16;1.27;;;1.00;;
19664;SDS011;9980;51.020;7.772;2022-08-03T13:09:00;3.15;;;1.13;;
19664;SDS011;9980;51.020;7.772;2022-08-03T13:11:31;1.30;;;1.20;;
19664;SDS011;9980;51.020;7.772;2022-08-03T13:14:19;1.27;;;1.10;;
19664;SDS011;9980;51.020;7.772;2022-08-03T13:16:47;1.48;;;0.90;;
19664;SDS011;9980;51.020;7.772;2022-08-03T13:19:14;7.55;;;1.85;;
19664;SDS011;9980;51.020;7.772;2022-08-03T13:21:42;1.75;;;1.02;;
19664;SDS011;9980;51.020;7.772;2022-08-03T13:24:30;4.60;;;1.50;;
19664;SDS011;9980;51.020;7.772;2022-08-03T13:26:58;4.68;;;1.70;;
19664;SDS011;9980;51.020;7.772;2022-08-03T13:29:47;2.25;;;1.45;;
19664;SDS011;9980;51.020;7.772;2022-08-03T13:32:15;3.92;;;1.38;;
19664;SDS011;9980;51.020;7.772;2022-08-03T13:34:42;1.33;;;1.13;;
19664;SDS011;9980;51.020;7.772;2022-08-03T13:37:09;2.38;;;1.20;;
19664;SDS011;9980;51.020;7.772;2022-08-03T13:39:37;1.13;;;1.02;;
19664;SDS011;9980;51.020;7.772;2022-08-03T13:42:24;2.45;;;0.90;;
19664;SDS011;9980;51.020;7.772;2022-08-03T13:44:56;2.03;;;0.93;;
19664;SDS011;9980;51.020;7.772;2022-08-03T13:47:24;1.95;;;1.15;;
19664;SDS011;9980;51.020;7.772;2022-08-03T13:49:52;2.28;;;1.10;;
19664;SDS011;9980;51.020;7.772;2022-08-03T13:52:34;2.78;;;1.00;;
19664;SDS011;9980;51.020;7.772;2022-08-03T13:55:03;2.30;;;0.88;;
19664;SDS011;9980;51.020;7.772;2022-08-03T13:57:32;2.25;;;1.00;;
19664;SDS011;9980;51.020;7.772;2022-08-03T14:00:20;1.15;;;0.98;;
19664;SDS011;9980;51.020;7.772;2022-08-03T14:02:55;2.67;;;0.85;;
19664;SDS011;9980;51.020;7.772;2022-08-03T14:05:34;0.82;;;0.70;;
19664;SDS011;9980;51.020;7.772;2022-08-03T14:08:04;1.15;;;1.00;;
19664;SDS011;9980;51.020;7.772;2022-08-03T14:10:33;1.10;;;0.93;;
19664;SDS011;9980;51.020;7.772;2022-08-03T14:13:09;1.05;;;0.75;;
19664;SDS011;9980;51.020;7.772;2022-08-03T14:15:43;1.45;;;0.85;;
19664;SDS011;9980;51.020;7.772;2022-08-03T14:18:16;0.90;;;0.70;;
19664;SDS011;9980;51.020;7.772;2022-08-03T14:20:55;1.65;;;0.80;;
19664;SDS011;9980;51.020;7.772;2022-08-03T14:23:30;2.65;;;0.80;;
19664;SDS011;9980;51.020;7.772;2022-08-03T14:25:58;1.23;;;0.90;;
19664;SDS011;9980;51.020;7.772;2022-08-03T14:28:25;10.27;;;1.30;;
19664;SDS011;9980;51.020;7.772;2022-08-03T14:30:52;0.80;;;0.70;;
19664;SDS011;9980;51.020;7.772;2022-08-03T14:33:21;3.60;;;0.85;;
19664;SDS011;9980;51.020;7.772;2022-08-03T14:35:50;4.78;;;1.10;;
19664;SDS011;9980;51.020;7.772;2022-08-03T14:38:18;1.40;;;1.05;;
19664;SDS011;9980;51.020;7.772;2022-08-03T14:40:46;1.55;;;1.20;;
19664;SDS011;9980;51.020;7.772;2022-08-03T14:43:13;3.60;;;0.90;;
19664;SDS011;9980;51.020;7.772;2022-08-03T14:45:43;1.30;;;0.80;;
19664;SDS011;9980;51.020;7.772;2022-08-03T14:48:10;4.95;;;0.90;;
19664;SDS011;9980;51.020;7.772;2022-08-03T14:50:57;1.52;;;1.00;;
19664;SDS011;9980;51.020;7.772;2022-08-03T14:53:24;3.35;;;1.00;;
19664;SDS011;9980;51.020;7.772;2022-08-03T14:55:51;3.60;;;1.10;;
19664;SDS011;9980;51.020;7.772;2022-08-03T14:58:19;2.13;;;1.17;;
19664;SDS011;9980;51.020;7.772;2022-08-03T15:00:49;1.60;;;1.13;;
19664;SDS011;9980;51.020;7.772;2022-08-03T15:03:18;4.53;;;0.98;;
19664;SDS011;9980;51.020;7.772;2022-08-03T15:05:53;6.30;;;1.42;;
19664;SDS011;9980;51.020;7.772;2022-08-03T15:08:22;7.55;;;1.60;;
19664;SDS011;9980;51.020;7.772;2022-08-03T15:10:52;4.72;;;1.80;;
19664;SDS011;9980;51.020;7.772;2022-08-03T15:13:20;3.30;;;1.20;;
19664;SDS011;9980;51.020;7.772;2022-08-03T15:15:47;2.83;;;0.90;;
19664;SDS011;9980;51.020;7.772;2022-08-03T15:18:15;10.68;;;3.00;;
19664;SDS011;9980;51.020;7.772;2022-08-03T15:20:42;3.65;;;1.23;;
19664;SDS011;9980;51.020;7.772;2022-08-03T15:23:12;2.38;;;1.13;;
19664;SDS011;9980;51.020;7.772;2022-08-03T15:25:42;1.08;;;0.98;;
19664;SDS011;9980;51.020;7.772;2022-08-03T15:28:31;1.33;;;0.88;;
19664;SDS011;9980;51.020;7.772;2022-08-03T15:30:58;2.55;;;1.10;;
19664;SDS011;9980;51.020;7.772;2022-08-03T15:33:27;3.22;;;1.20;;
19664;SDS011;9980;51.020;7.772;2022-08-03T15:35:54;0.80;;;0.80;;
19664;SDS011;9980;51.020;7.772;2022-08-03T15:38:22;2.15;;;1.00;;
19664;SDS011;9980;51.020;7.772;2022-08-03T15:40:51;1.42;;;1.17;;
19664;SDS011;9980;51.020;7.772;2022-08-03T15:43:20;1.63;;;1.30;;
19664;SDS011;9980;51.020;7.772;2022-08-03T15:45:48;2.45;;;1.20;;
19664;SDS011;9980;51.020;7.772;2022-08-03T15:48:36;1.35;;;1.02;;
19664;SDS011;9980;51.020;7.772;2022-08-03T15:51:03;3.83;;;0.85;;
19664;SDS011;9980;51.020;7.772;2022-08-03T15:53:31;3.88;;;1.20;;
19664;SDS011;9980;51.020;7.772;2022-08-03T15:55:59;2.88;;;1.05;;
19664;SDS011;9980;51.020;7.772;2022-08-03T15:58:35;1.85;;;1.50;;
19664;SDS011;9980;51.020;7.772;2022-08-03T16:01:23;3.92;;;1.40;;
19664;SDS011;9980;51.020;7.772;2022-08-03T16:03:51;2.40;;;1.00;;
19664;SDS011;9980;51.020;7.772;2022-08-03T16:06:18;3.80;;;1.00;;
19664;SDS011;9980;51.020;7.772;2022-08-03T16:09:02;1.40;;;0.98;;
19664;SDS011;9980;51.020;7.772;2022-08-03T16:11:51;2.47;;;1.17;;
19664;SDS011;9980;51.020;7.772;2022-08-03T16:14:18;1.05;;;0.95;;
19664;SDS011;9980;51.020;7.772;2022-08-03T16:17:01;1.83;;;1.15;;
19664;SDS011;9980;51.020;7.772;2022-08-03T16:19:28;1.85;;;1.40;;
19664;SDS011;9980;51.020;7.772;2022-08-03T16:21:56;4.65;;;1.10;;